sensor_id;sensor_type;location;lat;lon;timestamp;pressure;altitude;pressure_sealevel;temperature;humidity
13209;BME280;6669;42.678;23.332;2023-12-20T00:02:14;94901.91;;;0.93;100.00
13209;BME280;6669;42.678;23.332;2023-12-20T00:04:42;94892.19;;;0.98;100.00
13209;BME280;6669;42.678;23.332;2023-12-20T00:07:12;94904.75;;;1.01;100.00
13209;BME280;6669;42.678;23.332;2023-12-20T00:09:40;94876.91;;;0.96;100.00
13209;BME280;6669;42.678;23.332;2023-12-20T00:12:09;94893.75;;;1.12;100.00
13209;BME280;6669;42.678;23.332;2023-12-20T00:14:37;94892.47;;;1.06;100.00
13209;BME280;6669;42.678;23.332;2023-12-20T00:17:06;94890.72;;;1.07;100.00
13209;BME280;6669;42.678;23.332;2023-12-20T00:19:34;94886.59;;;0.80;100.00
13209;BME280;6669;42.678;23.332;2023-12-20T00:22:03;94883.50;;;0.88;100.00
13209;BME280;6669;42.678;23.332;2023-12-20T00:24:33;94837.50;;;0.62;100.00
13209;BME280;6669;42.678;23.332;2023-12-20T00:27:01;94871.88;;;0.71;100.00
13209;BME280;6669;42.678;23.332;2023-12-20T00:29:29;94879.44;;;0.72;100.00
13209;BME280;6669;42.678;23.332;2023-12-20T00:31:57;94872.50;;;0.61;100.00
13209;BME280;6669;42.678;23.332;2023-12-20T00:34:26;94847.38;;;0.42;100.00
13209;BME280;6669;42.678;23.332;2023-12-20T00:36:54;94842.00;;;0.58;100.00
13209;BME280;6669;42.678;23.332;2023-12-20T00:39:22;94828.09;;;0.49;100.00
13209;BME280;6669;42.678;23.332;2023-12-20T00:41:52;94826.03;;;0.55;100.00
13209;BME280;6669;42.678;23.332;2023-12-20T00:44:20;94851.09;;;0.75;100.00
13209;BME280;6669;42.678;23.332;2023-12-20T00:46:48;94850.97;;;0.77;100.00
13209;BME280;6669;42.678;23.332;2023-12-20T00:49:17;94849.63;;;0.84;100.00
13209;BME280;6669;42.678;23.332;2023-12-20T00:51:46;94848.72;;;0.72;100.00
13209;BME280;6669;42.678;23.332;2023-12-20T00:54:17;94803.56;;;0.47;100.00
13209;BME280;6669;42.678;23.332;2023-12-20T00:56:45;94816.00;;;0.64;100.00
13209;BME280;6669;42.678;23.332;2023-12-20T00:59:15;94812.56;;;0.53;100.00
13209;BME280;6669;42.678;23.332;2023-12-20T01:01:44;94823.81;;;0.50;100.00
13209;BME280;6669;42.678;23.332;2023-12-20T01:04:12;94832.13;;;0.54;100.00
13209;BME280;6669;42.678;23.332;2023-12-20T01:06:41;94806.25;;;0.32;100.00
13209;BME280;6669;42.678;23.332;2023-12-20T01:09:09;94806.56;;;0.28;100.00
13209;BME280;6669;42.678;23.332;2023-12-20T01:11:37;94825.19;;;0.30;100.00
13209;BME280;6669;42.678;23.332;2023-12-20T01:14:05;94829.69;;;0.26;100.00
13209;BME280;6669;42.678;23.332;2023-12-20T01:16:35;94822.13;;;0.25;100.00
13209;BME280;6669;42.678;23.332;2023-12-20T01:19:03;94780.94;;;0.04;100.00
13209;BME280;6669;42.678;23.332;2023-12-20T01:21:31;94800.69;;;0.02;100.00
13209;BME280;6669;42.678;23.332;2023-12-20T01:23:59;94789.84;;;-0.02;100.00
13209;BME280;6669;42.678;23.332;2023-12-20T01:26:27;94784.22;;;-0.07;100.00
13209;BME280;6669;42.678;23.332;2023-12-20T01:28:56;94807.50;;;0.14;100.00
13209;BME280;6669;42.678;23.332;2023-12-20T01:31:24;94802.91;;;0.06;100.00
13209;BME280;6669;42.678;23.332;2023-12-20T01:33:55;94769.28;;;-0.13;100.00
13209;BME280;6669;42.678;23.332;2023-12-20T01:36:23;94801.59;;;0.01;100.00
13209;BME280;6669;42.678;23.332;2023-12-20T01:38:52;94771.13;;;-0.15;100.00
13209;BME280;6669;42.678;23.332;2023-12-20T01:41:20;94766.75;;;-0.13;100.00
13209;BME280;6669;42.678;23.332;2023-12-20T01:43:48;94787.91;;;0.02;100.00
13209;BME280;6669;42.678;23.332;2023-12-20T01:46:19;94750.78;;;-0.17;100.00
13209;BME280;6669;42.678;23.332;2023-12-20T01:48:48;94775.81;;;0.04;100.00
13209;BME280;6669;42.678;23.332;2023-12-20T01:51:18;94766.00;;;-0.03;100.00
13209;BME280;6669;42.678;23.332;2023-12-20T01:53:47;94769.28;;;-0.01;100.00
13209;BME280;6669;42.678;23.332;2023-12-20T01:56:16;94753.75;;;-0.10;100.00
13209;BME280;6669;42.678;23.332;2023-12-20T01:58:46;94747.03;;;-0.11;100.00
13209;BME280;6669;42.678;23.332;2023-12-20T02:01:15;94747.59;;;-0.08;100.00
13209;BME280;6669;42.678;23.332;2023-12-20T02:03:45;94767.56;;;0.00;100.00
13209;BME280;6669;42.678;23.332;2023-12-20T02:06:14;94759.03;;;0.12;100.00
13209;BME280;6669;42.678;23.332;2023-12-20T02:08:44;94740.69;;;-0.19;100.00
13209;BME280;6669;42.678;23.332;2023-12-20T02:11:12;94747.81;;;-0.11;100.00
13209;BME280;6669;42.678;23.332;2023-12-20T02:13:40;94755.00;;;-0.16;100.00
13209;BME280;6669;42.678;23.332;2023-12-20T02:16:09;94752.56;;;-0.30;100.00
13209;BME280;6669;42.678;23.332;2023-12-20T02:18:37;94752.56;;;-0.30;100.00
13209;BME280;6669;42.678;23.332;2023-12-20T02:21:06;94747.34;;;-0.29;100.00
13209;BME280;6669;42.678;23.332;2023-12-20T02:23:35;94719.03;;;-0.52;100.00
13209;BME280;6669;42.678;23.332;2023-12-20T02:26:04;94716.25;;;-0.48;100.00
13209;BME280;6669;42.678;23.332;2023-12-20T02:28:34;94713.53;;;-0.45;100.00
13209;BME280;6669;42.678;23.332;2023-12-20T02:31:03;94710.13;;;-0.46;100.00
13209;BME280;6669;42.678;23.332;2023-12-20T02:33:31;94708.72;;;-0.50;100.00
13209;BME280;6669;42.678;23.332;2023-12-20T02:35:59;94728.00;;;-0.46;100.00
13209;BME280;6669;42.678;23.332;2023-12-20T02:38:28;94727.53;;;-0.38;100.00
13209;BME280;6669;42.678;23.332;2023-12-20T02:40:57;94701.28;;;-0.53;100.00
13209;BME280;6669;42.678;23.332;2023-12-20T02:43:25;94721.38;;;-0.48;100.00
13209;BME280;6669;42.678;23.332;2023-12-20T02:45:53;94693.69;;;-0.68;100.00
13209;BME280;6669;42.678;23.332;2023-12-20T02:48:22;94714.66;;;-0.50;100.00
13209;BME280;6669;42.678;23.332;2023-12-20T02:50:51;94700.53;;;-0.81;100.00
13209;BME280;6669;42.678;23.332;2023-12-20T02:53:19;94688.69;;;-0.82;100.00
13209;BME280;6669;42.678;23.332;2023-12-20T02:55:47;94713.09;;;-0.65;100.00
13209;BME280;6669;42.678;23.332;2023-12-20T02:58:17;94688.91;;;-0.85;100.00
13209;BME280;6669;42.678;23.332;2023-12-20T03:00:45;94693.91;;;-0.84;100.00
13209;BME280;6669;42.678;23.332;2023-12-20T03:03:14;94720.22;;;-0.83;100.00
13209;BME280;6669;42.678;23.332;2023-12-20T03:05:42;94714.09;;;-0.93;100.00
13209;BME280;6669;42.678;23.332;2023-12-20T03:08:11;94722.38;;;-0.90;100.00
13209;BME280;6669;42.678;23.332;2023-12-20T03:10:39;94715.47;;;-1.15;100.00
13209;BME280;6669;42.678;23.332;2023-12-20T03:13:07;94718.41;;;-1.21;100.00
13209;BME280;6669;42.678;23.332;2023-12-20T03:15:37;94712.09;;;-1.28;100.00
13209;BME280;6669;42.678;23.332;2023-12-20T03:18:05;94714.44;;;-1.25;100.00
13209;BME280;6669;42.678;23.332;2023-12-20T03:20:34;94693.78;;;-1.35;100.00
13209;BME280;6669;42.678;23.332;2023-12-20T03:23:02;94717.19;;;-1.28;100.00
13209;BME280;6669;42.678;23.332;2023-12-20T03:25:31;94709.91;;;-1.35;100.00
13209;BME280;6669;42.678;23.332;2023-12-20T03:27:59;94707.16;;;-1.32;100.00
13209;BME280;6669;42.678;23.332;2023-12-20T03:30:27;94707.38;;;-1.35;100.00
13209;BME280;6669;42.678;23.332;2023-12-20T03:32:57;94705.63;;;-1.34;100.00
13209;BME280;6669;42.678;23.332;2023-12-20T03:35:25;94682.53;;;-1.45;100.00
13209;BME280;6669;42.678;23.332;2023-12-20T03:37:53;94678.66;;;-1.51;100.00
13209;BME280;6669;42.678;23.332;2023-12-20T03:40:21;94703.06;;;-1.34;100.00
13209;BME280;6669;42.678;23.332;2023-12-20T03:42:50;94656.00;;;-1.56;100.00
13209;BME280;6669;42.678;23.332;2023-12-20T03:45:18;94680.97;;;-1.34;100.00
13209;BME280;6669;42.678;23.332;2023-12-20T03:47:46;94683.59;;;-1.35;100.00
13209;BME280;6669;42.678;23.332;2023-12-20T03:50:17;94692.06;;;-1.35;100.00
13209;BME280;6669;42.678;23.332;2023-12-20T03:52:45;94695.63;;;-1.37;100.00
13209;BME280;6669;42.678;23.332;2023-12-20T03:55:14;94692.59;;;-1.29;100.00
13209;BME280;6669;42.678;23.332;2023-12-20T03:57:43;94663.16;;;-1.48;100.00
13209;BME280;6669;42.678;23.332;2023-12-20T04:00:12;94669.59;;;-1.55;100.00
13209;BME280;6669;42.678;23.332;2023-12-20T04:02:41;94689.69;;;-1.38;100.00
13209;BME280;6669;42.678;23.332;2023-12-20T04:05:10;94679.50;;;-1.38;100.00
13209;BME280;6669;42.678;23.332;2023-12-20T04:07:39;94676.03;;;-1.37;100.00
13209;BME280;6669;42.678;23.332;2023-12-20T04:10:08;94659.19;;;-1.52;100.00
13209;BME280;6669;42.678;23.332;2023-12-20T04:12:37;94677.69;;;-1.36;100.00
13209;BME280;6669;42.678;23.332;2023-12-20T04:15:05;94650.09;;;-1.56;100.00
13209;BME280;6669;42.678;23.332;2023-12-20T04:17:36;94677.69;;;-1.36;100.00
13209;BME280;6669;42.678;23.332;2023-12-20T04:20:06;94662.16;;;-1.33;100.00
13209;BME280;6669;42.678;23.332;2023-12-20T04:22:34;94668.31;;;-1.22;100.00
13209;BME280;6669;42.678;23.332;2023-12-20T04:25:04;94644.44;;;-1.34;100.00
13209;BME280;6669;42.678;23.332;2023-12-20T04:27:33;94668.09;;;-1.32;100.00
13209;BME280;6669;42.678;23.332;2023-12-20T04:30:01;94636.44;;;-1.55;100.00
13209;BME280;6669;42.678;23.332;2023-12-20T04:32:30;94639.97;;;-1.58;100.00
13209;BME280;6669;42.678;23.332;2023-12-20T04:34:59;94647.97;;;-1.50;100.00
13209;BME280;6669;42.678;23.332;2023-12-20T04:37:27;94628.31;;;-1.75;100.00
13209;BME280;6669;42.678;23.332;2023-12-20T04:39:55;94651.31;;;-1.49;100.00
13209;BME280;6669;42.678;23.332;2023-12-20T04:42:25;94652.25;;;-1.50;100.00
13209;BME280;6669;42.678;23.332;2023-12-20T04:44:53;94608.63;;;-1.86;100.00
13209;BME280;6669;42.678;23.332;2023-12-20T04:47:22;94623.41;;;-1.78;100.00
13209;BME280;6669;42.678;23.332;2023-12-20T04:49:50;94641.16;;;-1.76;100.00
13209;BME280;6669;42.678;23.332;2023-12-20T04:52:19;94603.84;;;-2.05;100.00
13209;BME280;6669;42.678;23.332;2023-12-20T04:54:47;94618.47;;;-1.94;100.00
13209;BME280;6669;42.678;23.332;2023-12-20T04:57:15;94635.03;;;-2.01;100.00
13209;BME280;6669;42.678;23.332;2023-12-20T04:59:45;94619.38;;;-2.22;100.00
13209;BME280;6669;42.678;23.332;2023-12-20T05:02:13;94619.00;;;-2.31;100.00
13209;BME280;6669;42.678;23.332;2023-12-20T05:04:41;94621.47;;;-2.29;100.00
13209;BME280;6669;42.678;23.332;2023-12-20T05:07:10;94642.72;;;-2.16;100.00
13209;BME280;6669;42.678;23.332;2023-12-20T05:09:38;94634.38;;;-2.32;100.00
13209;BME280;6669;42.678;23.332;2023-12-20T05:12:07;94636.75;;;-2.29;100.00
13209;BME280;6669;42.678;23.332;2023-12-20T05:14:34;94644.22;;;-2.40;100.00
13209;BME280;6669;42.678;23.332;2023-12-20T05:17:04;94615.41;;;-2.55;100.00
13209;BME280;6669;42.678;23.332;2023-12-20T05:19:32;94605.50;;;-2.60;100.00
13209;BME280;6669;42.678;23.332;2023-12-20T05:22:02;94603.16;;;-2.63;100.00
13209;BME280;6669;42.678;23.332;2023-12-20T05:24:31;94632.47;;;-2.57;100.00
13209;BME280;6669;42.678;23.332;2023-12-20T05:26:59;94629.56;;;-2.51;100.00
13209;BME280;6669;42.678;23.332;2023-12-20T05:29:27;94625.94;;;-2.61;100.00
13209;BME280;6669;42.678;23.332;2023-12-20T05:31:55;94594.13;;;-2.69;100.00
13209;BME280;6669;42.678;23.332;2023-12-20T05:34:26;94601.25;;;-2.59;100.00
13209;BME280;6669;42.678;23.332;2023-12-20T05:36:55;94619.97;;;-2.60;100.00
13209;BME280;6669;42.678;23.332;2023-12-20T05:39:23;94609.13;;;-2.64;100.00
13209;BME280;6669;42.678;23.332;2023-12-20T05:41:52;94613.88;;;-2.58;100.00
13209;BME280;6669;42.678;23.332;2023-12-20T05:44:20;94592.91;;;-2.76;100.00
13209;BME280;6669;42.678;23.332;2023-12-20T05:46:48;94580.00;;;-2.87;100.00
13209;BME280;6669;42.678;23.332;2023-12-20T05:49:17;94609.25;;;-2.66;100.00
13209;BME280;6669;42.678;23.332;2023-12-20T05:51:46;94611.22;;;-2.56;100.00
13209;BME280;6669;42.678;23.332;2023-12-20T05:54:15;94603.59;;;-2.56;100.00
13209;BME280;6669;42.678;23.332;2023-12-20T05:56:43;94574.41;;;-2.65;100.00
13209;BME280;6669;42.678;23.332;2023-12-20T05:59:11;94605.66;;;-2.49;100.00
13209;BME280;6669;42.678;23.332;2023-12-20T06:01:39;94574.16;;;-2.75;100.00
13209;BME280;6669;42.678;23.332;2023-12-20T06:04:07;94591.22;;;-2.48;100.00
13209;BME280;6669;42.678;23.332;2023-12-20T06:06:41;94568.16;;;-2.59;100.00
13209;BME280;6669;42.678;23.332;2023-12-20T06:09:11;94598.03;;;-2.49;100.00
13209;BME280;6669;42.678;23.332;2023-12-20T06:11:40;94591.41;;;-2.51;100.00
13209;BME280;6669;42.678;23.332;2023-12-20T06:14:08;94572.41;;;-2.60;100.00
13209;BME280;6669;42.678;23.332;2023-12-20T06:16:36;94600.09;;;-2.41;100.00
13209;BME280;6669;42.678;23.332;2023-12-20T06:19:04;94599.03;;;-2.51;100.00
13209;BME280;6669;42.678;23.332;2023-12-20T06:21:33;94604.13;;;-2.51;100.00
13209;BME280;6669;42.678;23.332;2023-12-20T06:24:01;94574.16;;;-2.60;100.00
13209;BME280;6669;42.678;23.332;2023-12-20T06:26:31;94593.22;;;-2.39;100.00
13209;BME280;6669;42.678;23.332;2023-12-20T06:28:59;94595.22;;;-2.44;100.00
13209;BME280;6669;42.678;23.332;2023-12-20T06:31:27;94580.84;;;-2.45;100.00
13209;BME280;6669;42.678;23.332;2023-12-20T06:33:56;94589.38;;;-2.32;100.00
13209;BME280;6669;42.678;23.332;2023-12-20T06:36:26;94553.59;;;-2.57;100.00
13209;BME280;6669;42.678;23.332;2023-12-20T06:38:54;94586.88;;;-2.19;100.00
13209;BME280;6669;42.678;23.332;2023-12-20T06:41:22;94597.94;;;-2.05;100.00
13209;BME280;6669;42.678;23.332;2023-12-20T06:43:53;94597.81;;;-2.04;100.00
13209;BME280;6669;42.678;23.332;2023-12-20T06:46:21;94580.00;;;-2.04;100.00
13209;BME280;6669;42.678;23.332;2023-12-20T06:48:50;94569.75;;;-2.02;100.00
13209;BME280;6669;42.678;23.332;2023-12-20T06:51:18;94584.44;;;-1.93;100.00
13209;BME280;6669;42.678;23.332;2023-12-20T06:53:47;94572.94;;;-1.86;100.00
13209;BME280;6669;42.678;23.332;2023-12-20T06:56:15;94552.22;;;-1.94;100.00
13209;BME280;6669;42.678;23.332;2023-12-20T06:58:45;94532.69;;;-1.93;100.00
13209;BME280;6669;42.678;23.332;2023-12-20T07:01:16;94573.91;;;-1.61;100.00
13209;BME280;6669;42.678;23.332;2023-12-20T07:03:44;94553.28;;;-1.71;100.00
13209;BME280;6669;42.678;23.332;2023-12-20T07:06:13;94564.00;;;-1.66;100.00
13209;BME280;6669;42.678;23.332;2023-12-20T07:08:43;94556.47;;;-1.67;100.00
13209;BME280;6669;42.678;23.332;2023-12-20T07:11:12;94558.81;;;-1.64;100.00
13209;BME280;6669;42.678;23.332;2023-12-20T07:13:41;94567.19;;;-1.49;100.00
13209;BME280;6669;42.678;23.332;2023-12-20T07:16:09;94562.81;;;-1.47;100.00
13209;BME280;6669;42.678;23.332;2023-12-20T07:18:39;94558.97;;;-1.40;100.00
13209;BME280;6669;42.678;23.332;2023-12-20T07:21:07;94557.13;;;-1.25;100.00
13209;BME280;6669;42.678;23.332;2023-12-20T07:23:35;94556.72;;;-1.19;100.00
13209;BME280;6669;42.678;23.332;2023-12-20T07:26:04;94541.00;;;-1.25;100.00
13209;BME280;6669;42.678;23.332;2023-12-20T07:28:32;94540.59;;;-1.19;100.00
13209;BME280;6669;42.678;23.332;2023-12-20T07:31:00;94543.16;;;-1.06;100.00
13209;BME280;6669;42.678;23.332;2023-12-20T07:33:29;94539.06;;;-0.96;100.00
13209;BME280;6669;42.678;23.332;2023-12-20T07:36:07;94545.28;;;-0.87;100.00
13209;BME280;6669;42.678;23.332;2023-12-20T07:38:35;94551.50;;;-0.78;100.00
13209;BME280;6669;42.678;23.332;2023-12-20T07:41:03;94540.38;;;-0.77;100.00
13209;BME280;6669;42.678;23.332;2023-12-20T07:43:32;94548.94;;;-0.78;100.00
13209;BME280;6669;42.678;23.332;2023-12-20T07:46:04;94552.81;;;-0.86;100.00
13209;BME280;6669;42.678;23.332;2023-12-20T07:48:34;94548.75;;;-0.88;100.00
13209;BME280;6669;42.678;23.332;2023-12-20T07:51:03;94539.16;;;-0.85;100.00
13209;BME280;6669;42.678;23.332;2023-12-20T07:53:34;94532.19;;;-0.70;100.00
13209;BME280;6669;42.678;23.332;2023-12-20T07:56:12;94540.53;;;-0.68;100.00
13209;BME280;6669;42.678;23.332;2023-12-20T07:58:41;94544.13;;;-0.83;100.00
13209;BME280;6669;42.678;23.332;2023-12-20T08:01:18;94529.75;;;-0.71;100.00
13209;BME280;6669;42.678;23.332;2023-12-20T08:03:48;94539.31;;;-0.62;100.00
13209;BME280;6669;42.678;23.332;2023-12-20T08:06:18;94530.94;;;-0.64;100.00
13209;BME280;6669;42.678;23.332;2023-12-20T08:08:47;94543.28;;;-0.58;100.00
13209;BME280;6669;42.678;23.332;2023-12-20T08:11:27;94541.44;;;-0.56;100.00
13209;BME280;6669;42.678;23.332;2023-12-20T08:13:56;94530.69;;;-0.48;100.00
13209;BME280;6669;42.678;23.332;2023-12-20T08:16:24;94525.16;;;-0.42;100.00
13209;BME280;6669;42.678;23.332;2023-12-20T08:18:52;94518.69;;;-0.35;100.00
13209;BME280;6669;42.678;23.332;2023-12-20T08:21:20;94513.44;;;-0.20;100.00
13209;BME280;6669;42.678;23.332;2023-12-20T08:23:51;94518.00;;;-0.12;100.00
13209;BME280;6669;42.678;23.332;2023-12-20T08:26:19;94526.63;;;-0.02;100.00
13209;BME280;6669;42.678;23.332;2023-12-20T08:28:50;94521.41;;;-0.01;100.00
13209;BME280;6669;42.678;23.332;2023-12-20T08:31:18;94509.50;;;0.23;100.00
13209;BME280;6669;42.678;23.332;2023-12-20T08:33:48;94518.91;;;0.11;100.00
13209;BME280;6669;42.678;23.332;2023-12-20T08:36:17;94510.00;;;0.28;100.00
13209;BME280;6669;42.678;23.332;2023-12-20T08:38:45;94506.19;;;0.34;100.00
13209;BME280;6669;42.678;23.332;2023-12-20T08:41:15;94502.94;;;0.43;100.00
13209;BME280;6669;42.678;23.332;2023-12-20T08:43:43;94502.03;;;0.44;100.00
13209;BME280;6669;42.678;23.332;2023-12-20T08:46:13;94494.69;;;0.39;100.00
13209;BME280;6669;42.678;23.332;2023-12-20T08:48:41;94479.47;;;0.38;100.00
13209;BME280;6669;42.678;23.332;2023-12-20T08:51:10;94486.31;;;0.37;100.00
13209;BME280;6669;42.678;23.332;2023-12-20T08:53:38;94478.22;;;0.43;100.00
13209;BME280;6669;42.678;23.332;2023-12-20T08:56:06;94486.81;;;0.54;100.00
13209;BME280;6669;42.678;23.332;2023-12-20T08:58:36;94489.84;;;0.59;100.00
13209;BME280;6669;42.678;23.332;2023-12-20T09:01:04;94479.25;;;0.63;100.00
13209;BME280;6669;42.678;23.332;2023-12-20T09:03:34;94473.34;;;0.63;100.00
13209;BME280;6669;42.678;23.332;2023-12-20T09:06:03;94461.59;;;0.72;100.00
13209;BME280;6669;42.678;23.332;2023-12-20T09:08:32;94466.00;;;0.70;100.00
13209;BME280;6669;42.678;23.332;2023-12-20T09:11:00;94454.50;;;0.75;100.00
13209;BME280;6669;42.678;23.332;2023-12-20T09:13:29;94439.03;;;0.77;100.00
13209;BME280;6669;42.678;23.332;2023-12-20T09:16:00;94429.38;;;0.80;100.00
13209;BME280;6669;42.678;23.332;2023-12-20T09:18:28;94428.81;;;0.88;100.00
13209;BME280;6669;42.678;23.332;2023-12-20T09:20:57;94410.31;;;0.85;100.00
13209;BME280;6669;42.678;23.332;2023-12-20T09:23:25;94398.09;;;0.88;100.00
13209;BME280;6669;42.678;23.332;2023-12-20T09:25:53;94389.97;;;0.83;100.00
13209;BME280;6669;42.678;23.332;2023-12-20T09:28:24;94382.28;;;0.94;100.00
13209;BME280;6669;42.678;23.332;2023-12-20T09:30:52;94378.28;;;1.02;100.00
13209;BME280;6669;42.678;23.332;2023-12-20T09:33:22;94378.53;;;0.98;100.00
13209;BME280;6669;42.678;23.332;2023-12-20T09:35:51;94384.81;;;1.06;100.00
13209;BME280;6669;42.678;23.332;2023-12-20T09:38:20;94391.28;;;1.21;100.00
13209;BME280;6669;42.678;23.332;2023-12-20T09:40:49;94386.28;;;1.20;100.00
13209;BME280;6669;42.678;23.332;2023-12-20T09:43:19;94379.75;;;1.16;100.00
13209;BME280;6669;42.678;23.332;2023-12-20T09:45:48;94345.72;;;1.04;100.00
13209;BME280;6669;42.678;23.332;2023-12-20T09:48:19;94367.53;;;1.19;100.00
13209;BME280;6669;42.678;23.332;2023-12-20T09:50:49;94349.16;;;1.14;100.00
13209;BME280;6669;42.678;23.332;2023-12-20T09:53:20;94334.50;;;1.16;100.00
13209;BME280;6669;42.678;23.332;2023-12-20T09:55:51;94358.41;;;1.38;100.00
13209;BME280;6669;42.678;23.332;2023-12-20T09:58:20;94331.03;;;1.38;100.00
13209;BME280;6669;42.678;23.332;2023-12-20T10:00:48;94337.25;;;1.57;100.00
13209;BME280;6669;42.678;23.332;2023-12-20T10:03:19;94339.47;;;2.13;100.00
13209;BME280;6669;42.678;23.332;2023-12-20T10:05:54;94349.41;;;2.59;100.00
13209;BME280;6669;42.678;23.332;2023-12-20T10:08:24;94340.50;;;3.43;100.00
13209;BME280;6669;42.678;23.332;2023-12-20T10:10:53;94339.25;;;3.96;100.00
13209;BME280;6669;42.678;23.332;2023-12-20T10:13:22;94316.63;;;4.00;100.00
13209;BME280;6669;42.678;23.332;2023-12-20T10:15:50;94327.19;;;3.97;100.00
13209;BME280;6669;42.678;23.332;2023-12-20T10:18:19;94284.66;;;3.45;100.00
13209;BME280;6669;42.678;23.332;2023-12-20T10:20:48;94322.09;;;3.67;100.00
13209;BME280;6669;42.678;23.332;2023-12-20T10:23:18;94323.53;;;3.99;100.00
13209;BME280;6669;42.678;23.332;2023-12-20T10:25:56;94313.09;;;4.48;100.00
13209;BME280;6669;42.678;23.332;2023-12-20T10:28:25;94311.09;;;4.70;100.00
13209;BME280;6669;42.678;23.332;2023-12-20T10:30:55;94302.28;;;4.90;100.00
13209;BME280;6669;42.678;23.332;2023-12-20T10:33:24;94281.78;;;5.17;100.00
13209;BME280;6669;42.678;23.332;2023-12-20T10:35:54;94296.28;;;5.36;100.00
13209;BME280;6669;42.678;23.332;2023-12-20T10:38:24;94298.84;;;5.54;100.00
13209;BME280;6669;42.678;23.332;2023-12-20T10:40:57;94293.88;;;5.79;100.00
13209;BME280;6669;42.678;23.332;2023-12-20T10:43:26;94277.34;;;5.89;100.00
13209;BME280;6669;42.678;23.332;2023-12-20T10:45:57;94271.97;;;5.83;100.00
13209;BME280;6669;42.678;23.332;2023-12-20T10:48:28;94263.91;;;6.04;100.00
13209;BME280;6669;42.678;23.332;2023-12-20T10:50:58;94276.03;;;6.12;100.00
13209;BME280;6669;42.678;23.332;2023-12-20T10:53:29;94264.69;;;6.31;100.00
13209;BME280;6669;42.678;23.332;2023-12-20T10:56:00;94246.91;;;6.19;100.00
13209;BME280;6669;42.678;23.332;2023-12-20T10:58:32;94257.78;;;6.40;100.00
13209;BME280;6669;42.678;23.332;2023-12-20T11:01:01;94251.25;;;6.62;100.00
13209;BME280;6669;42.678;23.332;2023-12-20T11:03:35;94226.41;;;6.61;100.00
13209;BME280;6669;42.678;23.332;2023-12-20T11:06:09;94245.50;;;6.76;100.00
13209;BME280;6669;42.678;23.332;2023-12-20T11:08:50;94241.16;;;6.85;100.00
13209;BME280;6669;42.678;23.332;2023-12-20T11:11:25;94240.44;;;6.58;100.00
13209;BME280;6669;42.678;23.332;2023-12-20T11:13:57;94242.22;;;5.97;100.00
13209;BME280;6669;42.678;23.332;2023-12-20T11:16:26;94216.03;;;5.31;100.00
13209;BME280;6669;42.678;23.332;2023-12-20T11:19:07;94230.97;;;4.73;100.00
13209;BME280;6669;42.678;23.332;2023-12-20T11:21:36;94241.81;;;4.49;100.00
13209;BME280;6669;42.678;23.332;2023-12-20T11:24:06;94205.97;;;4.09;100.00
13209;BME280;6669;42.678;23.332;2023-12-20T11:26:34;94216.50;;;3.88;100.00
13209;BME280;6669;42.678;23.332;2023-12-20T11:29:30;94202.13;;;3.58;100.00
13209;BME280;6669;42.678;23.332;2023-12-20T11:32:00;94204.75;;;3.29;100.00
13209;BME280;6669;42.678;23.332;2023-12-20T11:34:32;94195.81;;;3.33;100.00
13209;BME280;6669;42.678;23.332;2023-12-20T11:37:02;94179.75;;;3.11;100.00
13209;BME280;6669;42.678;23.332;2023-12-20T11:39:32;94180.16;;;3.06;100.00
13209;BME280;6669;42.678;23.332;2023-12-20T11:42:04;94166.47;;;3.25;100.00
13209;BME280;6669;42.678;23.332;2023-12-20T11:44:35;94165.84;;;3.23;100.00
13209;BME280;6669;42.678;23.332;2023-12-20T11:47:04;94162.28;;;3.24;100.00
13209;BME280;6669;42.678;23.332;2023-12-20T11:49:33;94146.69;;;3.46;100.00
13209;BME280;6669;42.678;23.332;2023-12-20T11:52:01;94137.97;;;3.66;100.00
13209;BME280;6669;42.678;23.332;2023-12-20T11:54:31;94143.16;;;4.12;100.00
13209;BME280;6669;42.678;23.332;2023-12-20T11:57:00;94143.28;;;4.74;100.00
13209;BME280;6669;42.678;23.332;2023-12-20T11:59:28;94120.41;;;5.42;100.00
13209;BME280;6669;42.678;23.332;2023-12-20T12:01:56;94135.41;;;5.73;100.00
13209;BME280;6669;42.678;23.332;2023-12-20T12:04:28;94106.28;;;6.32;100.00
13209;BME280;6669;42.678;23.332;2023-12-20T12:06:57;94108.41;;;6.61;100.00
13209;BME280;6669;42.678;23.332;2023-12-20T12:09:25;94097.44;;;7.17;100.00
13209;BME280;6669;42.678;23.332;2023-12-20T12:11:54;94104.25;;;7.74;100.00
13209;BME280;6669;42.678;23.332;2023-12-20T12:14:23;94096.03;;;8.02;100.00
13209;BME280;6669;42.678;23.332;2023-12-20T12:16:52;94090.06;;;8.33;100.00
13209;BME280;6669;42.678;23.332;2023-12-20T12:19:21;94100.41;;;8.33;100.00
13209;BME280;6669;42.678;23.332;2023-12-20T12:21:50;94087.94;;;8.37;100.00
13209;BME280;6669;42.678;23.332;2023-12-20T12:24:20;94086.00;;;7.99;100.00
13209;BME280;6669;42.678;23.332;2023-12-20T12:26:52;94073.81;;;7.76;100.00
13209;BME280;6669;42.678;23.332;2023-12-20T12:29:22;94079.28;;;7.90;100.00
13209;BME280;6669;42.678;23.332;2023-12-20T12:31:51;94087.50;;;7.93;100.00
13209;BME280;6669;42.678;23.332;2023-12-20T12:34:19;94076.81;;;7.96;100.00
13209;BME280;6669;42.678;23.332;2023-12-20T12:36:48;94092.03;;;7.91;100.00
13209;BME280;6669;42.678;23.332;2023-12-20T12:39:17;94078.41;;;8.06;100.00
13209;BME280;6669;42.678;23.332;2023-12-20T12:41:45;94092.09;;;8.14;100.00
13209;BME280;6669;42.678;23.332;2023-12-20T12:44:14;94082.72;;;8.13;100.00
13209;BME280;6669;42.678;23.332;2023-12-20T12:46:45;94076.44;;;8.08;100.00
13209;BME280;6669;42.678;23.332;2023-12-20T12:49:14;94074.34;;;7.72;100.00
13209;BME280;6669;42.678;23.332;2023-12-20T12:51:42;94060.06;;;7.28;100.00
13209;BME280;6669;42.678;23.332;2023-12-20T12:54:12;94083.69;;;7.16;100.00
13209;BME280;6669;42.678;23.332;2023-12-20T12:56:42;94073.69;;;6.97;100.00
13209;BME280;6669;42.678;23.332;2023-12-20T12:59:10;94077.59;;;6.43;100.00
13209;BME280;6669;42.678;23.332;2023-12-20T13:01:39;94048.72;;;6.48;100.00
13209;BME280;6669;42.678;23.332;2023-12-20T13:04:08;94065.50;;;6.52;100.00
13209;BME280;6669;42.678;23.332;2023-12-20T13:06:38;94075.00;;;6.43;100.00